createdAt,value
2018-04-11T00:00:19.827Z,12.80
2018-04-11T00:02:47.268Z,12.90
2018-04-11T00:05:14.708Z,12.80
2018-04-11T00:07:42.934Z,12.70
2018-04-11T00:10:10.368Z,12.70
2018-04-11T00:12:37.956Z,12.80
2018-04-11T00:15:05.396Z,12.90
2018-04-11T00:17:32.846Z,12.90
2018-04-11T00:20:00.528Z,12.80
2018-04-11T00:22:27.968Z,12.90
2018-04-11T00:24:55.417Z,12.90
2018-04-11T00:27:22.883Z,12.80
2018-04-11T00:29:50.330Z,12.70
2018-04-11T00:32:17.778Z,12.70
2018-04-11T00:34:45.215Z,12.70
2018-04-11T00:37:13.428Z,12.80
2018-04-11T00:39:40.873Z,12.80
2018-04-11T00:42:08.312Z,12.80
2018-04-11T00:44:35.751Z,12.80
2018-04-11T00:47:03.954Z,12.80
2018-04-11T00:49:31.403Z,12.70
2018-04-11T00:51:58.853Z,12.80
2018-04-11T00:54:26.288Z,12.80
2018-04-11T00:56:54.509Z,12.70
2018-04-11T00:59:21.967Z,12.60
2018-04-11T01:01:49.442Z,12.60
2018-04-11T01:04:17.092Z,12.60
2018-04-11T01:06:44.534Z,12.50
2018-04-11T01:09:11.978Z,12.50
2018-04-11T01:11:39.442Z,12.30
2018-04-11T01:14:06.888Z,12.30
2018-04-11T01:16:34.332Z,12.40
2018-04-11T01:19:01.770Z,12.40
2018-04-11T01:21:29.220Z,12.40
2018-04-11T01:23:56.666Z,12.40
2018-04-11T01:26:24.117Z,12.40
2018-04-11T01:28:51.565Z,12.30
2018-04-11T01:31:19.001Z,12.30
2018-04-11T01:33:46.486Z,12.40
2018-04-11T01:36:13.934Z,12.40
2018-04-11T01:38:41.365Z,12.40
2018-04-11T01:41:08.931Z,12.40
2018-04-11T01:43:36.401Z,12.40
2018-04-11T01:46:03.850Z,12.30
2018-04-11T01:48:31.313Z,12.30
2018-04-11T01:50:58.784Z,12.20
2018-04-11T01:53:26.226Z,12.20
2018-04-11T01:55:53.670Z,12.20
2018-04-11T01:58:21.162Z,12.30
2018-04-11T02:00:48.595Z,12.20
2018-04-11T02:03:16.038Z,12.20
2018-04-11T02:05:43.497Z,12.30
2018-04-11T02:08:10.969Z,12.30
2018-04-11T02:10:38.512Z,12.40
2018-04-11T02:13:05.944Z,12.40
2018-04-11T02:15:33.380Z,12.30
2018-04-11T02:18:01.599Z,12.30
2018-04-11T02:20:29.037Z,12.20
2018-04-11T02:22:56.478Z,12.20
2018-04-11T02:25:24.690Z,12.20
2018-04-11T02:27:52.164Z,12.10
2018-04-11T02:30:19.600Z,12.20
2018-04-11T02:32:47.050Z,12.30
2018-04-11T02:35:14.497Z,12.30
2018-04-11T02:37:41.955Z,12.30
2018-04-11T02:40:09.444Z,12.30
2018-04-11T02:42:36.884Z,12.30
2018-04-11T02:45:04.463Z,12.30
2018-04-11T02:47:31.920Z,12.30
2018-04-11T02:49:59.354Z,12.30
2018-04-11T02:52:26.801Z,12.30
2018-04-11T02:54:54.254Z,12.30
2018-04-11T02:57:21.743Z,12.20
2018-04-11T02:59:49.179Z,12.20
2018-04-11T03:02:16.748Z,12.20
2018-04-11T03:04:44.182Z,12.20
2018-04-11T03:07:11.632Z,12.20
2018-04-11T03:09:39.077Z,12.20
2018-04-11T03:12:07.297Z,12.10
2018-04-11T03:14:34.731Z,12.10
2018-04-11T03:17:02.178Z,12.10
2018-04-11T03:19:29.620Z,12.10
2018-04-11T03:21:57.931Z,12.00
2018-04-11T03:24:25.612Z,11.90
2018-04-11T03:26:53.046Z,11.90
2018-04-11T03:29:20.470Z,11.80
2018-04-11T03:31:47.910Z,11.70
2018-04-11T03:34:15.368Z,11.60
2018-04-11T03:36:42.802Z,11.70
2018-04-11T03:39:10.248Z,11.70
2018-04-11T03:41:37.697Z,11.70
2018-04-11T03:44:05.129Z,11.70
2018-04-11T03:46:32.582Z,11.50
2018-04-11T03:49:00.777Z,11.60
2018-04-11T03:51:28.216Z,11.50
2018-04-11T03:53:55.665Z,11.60
2018-04-11T03:56:23.861Z,11.60
2018-04-11T03:58:51.372Z,11.50
2018-04-11T04:01:19.584Z,11.60
2018-04-11T04:03:47.029Z,11.60
2018-04-11T04:06:14.485Z,11.60
2018-04-11T04:08:41.921Z,11.60
2018-04-11T04:11:10.147Z,11.60
2018-04-11T04:13:49.595Z,11.60
2018-04-11T04:16:29.690Z,11.60
2018-04-11T04:19:09.823Z,11.60
2018-04-11T04:21:37.271Z,11.50
2018-04-11T04:24:05.650Z,11.50
2018-04-11T04:26:33.089Z,11.50
2018-04-11T04:29:00.555Z,11.40
2018-04-11T04:31:27.992Z,11.40
2018-04-11T04:33:55.428Z,11.40
2018-04-11T04:36:22.883Z,11.40
2018-04-11T04:38:50.330Z,11.30
2018-04-11T04:41:18.540Z,11.30
2018-04-11T04:43:45.969Z,11.30
2018-04-11T04:46:13.412Z,11.30
2018-04-11T04:48:41.622Z,11.30
2018-04-11T04:51:09.082Z,11.30
2018-04-11T04:53:36.852Z,11.30
2018-04-11T04:56:04.277Z,11.30
2018-04-11T04:58:31.708Z,11.40
2018-04-11T05:00:59.929Z,11.20
2018-04-11T05:03:27.364Z,11.20
2018-04-11T05:05:54.819Z,11.20
2018-04-11T05:08:23.025Z,10.90
2018-04-11T05:10:50.499Z,10.90
2018-04-11T05:13:17.929Z,11.00
2018-04-11T05:15:45.373Z,11.10
2018-04-11T05:18:12.809Z,11.10
2018-04-11T05:20:41.026Z,11.20
2018-04-11T05:23:08.697Z,11.10
2018-04-11T05:25:36.140Z,11.20
2018-04-11T05:28:03.570Z,11.30
2018-04-11T05:30:31.277Z,11.20
2018-04-11T05:32:58.717Z,11.30
2018-04-11T05:35:26.149Z,11.30
2018-04-11T05:37:53.621Z,11.30
2018-04-11T05:40:21.041Z,11.20
2018-04-11T05:42:49.266Z,11.30
2018-04-11T05:45:16.702Z,11.30
2018-04-11T05:47:44.151Z,11.30
2018-04-11T05:50:11.593Z,11.30
2018-04-11T05:52:39.797Z,11.30
2018-04-11T05:55:07.241Z,11.20
2018-04-11T05:57:34.696Z,11.40
2018-04-11T06:00:02.172Z,11.30
2018-04-11T06:02:29.596Z,11.40
2018-04-11T06:04:57.045Z,11.50
2018-04-11T06:07:25.264Z,11.30
2018-04-11T06:09:52.705Z,11.30
2018-04-11T06:12:20.187Z,11.40
2018-04-11T06:14:47.624Z,11.40
2018-04-11T06:17:15.592Z,11.40
2018-04-11T06:19:43.021Z,11.30
2018-04-11T06:22:11.221Z,11.50
2018-04-11T06:24:38.672Z,11.40
2018-04-11T06:27:06.103Z,11.60
2018-04-11T06:29:34.311Z,11.60
2018-04-11T06:32:01.815Z,11.60
2018-04-11T06:34:29.241Z,11.70
2018-04-11T06:36:56.679Z,11.80
2018-04-11T06:39:24.133Z,11.90
2018-04-11T06:41:51.581Z,12.00
2018-04-11T06:44:19.020Z,11.90
2018-04-11T06:46:47.225Z,12.10
2018-04-11T06:49:14.676Z,12.10
2018-04-11T06:51:42.104Z,12.10
2018-04-11T06:54:10.325Z,12.20
2018-04-11T06:56:37.759Z,12.10
2018-04-11T06:59:05.193Z,12.30
2018-04-11T07:01:33.499Z,12.50
2018-04-11T07:04:00.932Z,12.40
2018-04-11T07:06:28.362Z,12.60
2018-04-11T07:08:55.888Z,12.70
2018-04-11T07:11:24.093Z,12.90
2018-04-11T07:13:51.535Z,12.90
2018-04-11T07:16:19.092Z,13.10
2018-04-11T07:18:46.840Z,13.20
2018-04-11T07:21:14.328Z,13.50
2018-04-11T07:23:41.941Z,13.50
2018-04-11T07:26:09.367Z,13.60
2018-04-11T07:28:37.577Z,14.00
2018-04-11T07:31:05.013Z,14.00
2018-04-11T07:33:32.438Z,14.30
2018-04-11T07:35:59.956Z,14.60
2018-04-11T07:38:27.391Z,14.70
2018-04-11T07:40:54.832Z,14.90
2018-04-11T07:43:22.309Z,15.20
2018-04-11T07:45:49.741Z,15.50
2018-04-11T07:48:17.946Z,15.90
2018-04-11T07:50:45.381Z,15.90
2018-04-11T07:53:12.849Z,16.20
2018-04-11T07:55:40.277Z,16.40
2018-04-11T07:58:08.488Z,16.90
2018-04-11T08:00:35.920Z,16.90
2018-04-11T08:03:03.377Z,16.90
2018-04-11T08:05:30.816Z,17.00
2018-04-11T08:07:59.031Z,17.20
2018-04-11T08:10:26.456Z,17.20
2018-04-11T08:12:54.663Z,17.40
2018-04-11T08:15:22.118Z,17.40
2018-04-11T08:17:49.552Z,17.60
2018-04-11T08:20:16.979Z,17.90
2018-04-11T08:22:44.589Z,18.10
2018-04-11T08:25:12.005Z,18.30
2018-04-11T08:27:39.468Z,18.30
2018-04-11T08:30:06.913Z,18.30
2018-04-11T08:32:34.345Z,18.50
2018-04-11T08:35:01.769Z,18.80
2018-04-11T08:37:29.217Z,18.80
2018-04-11T08:39:56.656Z,18.70
2018-04-11T08:42:24.865Z,19.10
2018-04-11T08:44:52.334Z,19.10
2018-04-11T08:47:20.006Z,19.30
2018-04-11T08:49:47.432Z,19.40
2018-04-11T08:52:14.870Z,19.00
2018-04-11T08:54:42.316Z,18.60
2018-04-11T08:57:09.749Z,18.90
2018-04-11T08:59:37.190Z,19.40
2018-04-11T09:02:04.621Z,19.70
2018-04-11T09:04:32.056Z,19.80
2018-04-11T09:06:59.501Z,19.90
2018-04-11T09:09:27.709Z,20.60
2018-04-11T09:11:55.157Z,20.50
2018-04-11T09:14:22.589Z,20.90
2018-04-11T09:16:50.800Z,21.50
2018-04-11T09:19:18.260Z,21.50
2018-04-11T09:21:45.684Z,22.10
2018-04-11T09:24:13.129Z,22.40
2018-04-11T09:26:41.331Z,22.70
2018-04-11T09:29:08.789Z,22.70
2018-04-11T09:31:36.224Z,23.00
2018-04-11T09:34:03.724Z,23.10
2018-04-11T09:36:31.168Z,23.30
2018-04-11T09:38:58.596Z,23.50
2018-04-11T09:41:26.040Z,23.30
2018-04-11T09:43:54.246Z,23.40
2018-04-11T09:46:21.689Z,23.40
2018-04-11T09:48:49.116Z,23.50
2018-04-11T09:51:17.337Z,23.30
2018-04-11T09:53:44.780Z,23.20
2018-04-11T09:56:12.216Z,23.30
2018-04-11T09:58:40.425Z,24.10
2018-04-11T10:01:07.862Z,24.00
2018-04-11T10:03:35.297Z,24.40
2018-04-11T10:06:03.491Z,24.40
2018-04-11T10:08:31.187Z,24.40
2018-04-11T10:10:58.636Z,24.50
2018-04-11T10:13:26.084Z,24.70
2018-04-11T10:15:53.528Z,25.20
2018-04-11T10:18:20.968Z,25.30
2018-04-11T10:20:49.157Z,25.40
2018-04-11T10:23:16.632Z,25.30
2018-04-11T10:25:44.073Z,25.30
2018-04-11T10:28:11.528Z,24.70
2018-04-11T10:30:38.949Z,24.00
2018-04-11T10:33:06.476Z,23.80
2018-04-11T10:35:33.942Z,24.30
2018-04-11T10:38:01.377Z,24.90
2018-04-11T10:40:28.828Z,25.10
2018-04-11T10:42:56.261Z,24.70
2018-04-11T10:45:23.712Z,24.90
2018-04-11T10:47:51.144Z,25.20
2018-04-11T10:50:18.585Z,25.30
2018-04-11T10:52:46.045Z,25.50
2018-04-11T10:55:13.465Z,25.30
2018-04-11T10:57:40.909Z,24.80
2018-04-11T11:00:08.343Z,23.90
2018-04-11T11:02:36.537Z,24.20
2018-04-11T11:05:03.981Z,24.10
2018-04-11T11:07:31.425Z,23.80
2018-04-11T11:09:59.649Z,23.20
2018-04-11T11:12:27.080Z,23.10
2018-04-11T11:14:54.532Z,22.40
2018-04-11T11:17:21.967Z,22.30
2018-04-11T11:20:01.144Z,22.90
2018-04-11T11:22:28.577Z,22.90
2018-04-11T11:24:56.032Z,23.60
2018-04-11T11:27:23.530Z,24.30
2018-04-11T11:29:50.963Z,24.50
2018-04-11T11:32:18.403Z,25.00
2018-04-11T11:34:45.840Z,25.40
2018-04-11T11:37:14.056Z,25.50
2018-04-11T11:39:41.488Z,25.40
2018-04-11T11:42:08.921Z,25.20
2018-04-11T11:44:37.140Z,25.20
2018-04-11T11:47:04.581Z,25.10
2018-04-11T11:49:32.022Z,25.00
2018-04-11T11:52:00.281Z,23.60
2018-04-11T11:54:27.676Z,23.50
2018-04-11T11:56:55.100Z,23.20
2018-04-11T11:59:23.312Z,22.50
2018-04-11T12:01:50.757Z,22.40
2018-04-11T12:04:18.189Z,22.30
2018-04-11T12:06:46.417Z,22.20
2018-04-11T12:09:13.867Z,22.10
2018-04-11T12:11:41.300Z,22.00
2018-04-11T12:14:09.196Z,21.90
2018-04-11T12:16:36.648Z,22.00
2018-04-11T12:19:04.088Z,22.20
2018-04-11T12:21:31.517Z,22.30
2018-04-11T12:23:59.736Z,22.60
2018-04-11T12:26:27.177Z,22.60
2018-04-11T12:28:54.636Z,22.60
2018-04-11T12:31:22.219Z,22.50
2018-04-11T12:33:49.651Z,22.30
2018-04-11T12:36:17.076Z,22.30
2018-04-11T12:38:45.289Z,22.20
2018-04-11T12:41:12.725Z,22.10
2018-04-11T12:43:40.156Z,22.00
2018-04-11T12:46:07.596Z,21.90
2018-04-11T12:48:35.026Z,21.80
2018-04-11T12:51:02.458Z,21.60
2018-04-11T12:53:29.920Z,21.70
2018-04-11T12:55:57.348Z,21.70
2018-04-11T12:58:24.788Z,21.80
2018-04-11T13:00:52.515Z,21.80
2018-04-11T13:03:19.953Z,21.90
2018-04-11T13:05:47.392Z,21.90
2018-04-11T13:08:14.993Z,22.00
2018-04-11T13:10:42.422Z,22.10
2018-04-11T13:13:09.896Z,22.30
2018-04-11T13:15:37.361Z,22.20
2018-04-11T13:18:04.802Z,22.20
2018-04-11T13:20:32.273Z,22.10
2018-04-11T13:22:59.715Z,22.10
2018-04-11T13:25:27.160Z,22.20
2018-04-11T13:27:54.641Z,22.20
2018-04-11T13:30:22.088Z,22.20
2018-04-11T13:32:49.552Z,22.20
2018-04-11T13:35:17.024Z,22.20
2018-04-11T13:37:44.445Z,22.20
2018-04-11T13:40:11.877Z,22.00
2018-04-11T13:42:40.084Z,21.90
2018-04-11T13:45:07.520Z,21.80
2018-04-11T13:47:34.949Z,22.00
2018-04-11T13:50:03.384Z,22.20
2018-04-11T13:52:30.812Z,22.10
2018-04-11T13:54:58.241Z,22.20
2018-04-11T13:57:26.444Z,21.80
2018-04-11T13:59:53.874Z,21.80
2018-04-11T14:02:22.211Z,21.60
2018-04-11T14:04:49.635Z,21.60
2018-04-11T14:07:17.064Z,21.60
2018-04-11T14:09:45.277Z,21.60
2018-04-11T14:12:12.700Z,21.60
2018-04-11T14:14:40.912Z,21.40
2018-04-11T14:17:08.352Z,21.40
2018-04-11T14:19:35.797Z,21.40
2018-04-11T14:22:03.232Z,21.40
2018-04-11T14:24:30.670Z,21.50
2018-04-11T14:26:58.501Z,21.50
2018-04-11T14:29:25.946Z,21.60
2018-04-11T14:31:54.109Z,21.70
2018-04-11T14:34:21.553Z,21.60
2018-04-11T14:36:49.988Z,21.60
2018-04-11T14:39:17.422Z,21.60
2018-04-11T14:41:44.862Z,21.60
2018-04-11T14:44:12.297Z,21.60
2018-04-11T14:46:40.515Z,21.40
2018-04-11T14:49:07.944Z,21.30
2018-04-11T14:51:36.166Z,20.90
2018-04-11T14:54:03.701Z,20.90
2018-04-11T14:56:31.144Z,20.70
2018-04-11T14:58:58.569Z,20.50
2018-04-11T15:01:26.772Z,20.20
2018-04-11T15:03:54.232Z,20.10
2018-04-11T15:06:21.672Z,20.10
2018-04-11T15:08:50.030Z,19.90
2018-04-11T15:11:17.481Z,19.90
2018-04-11T15:13:44.925Z,19.80
2018-04-11T15:16:12.482Z,19.70
2018-04-11T15:18:39.912Z,19.60
2018-04-11T15:21:07.340Z,19.60
2018-04-11T15:23:34.788Z,19.50
2018-04-11T15:26:03.009Z,19.40
2018-04-11T15:28:30.424Z,19.40
2018-04-11T15:30:57.860Z,19.40
2018-04-11T15:33:26.055Z,19.30
2018-04-11T15:35:53.489Z,19.30
2018-04-11T15:38:21.708Z,19.30
2018-04-11T15:40:49.128Z,19.20
2018-04-11T15:43:17.460Z,19.30
2018-04-11T15:45:44.905Z,19.30
2018-04-11T15:48:12.373Z,19.30
2018-04-11T15:50:39.829Z,19.20
2018-04-11T15:53:07.266Z,19.10
2018-04-11T15:55:34.851Z,19.00
2018-04-11T15:58:02.286Z,18.90
2018-04-11T16:00:29.739Z,18.90
2018-04-11T16:02:57.185Z,18.90
2018-04-11T16:05:24.670Z,18.90
2018-04-11T16:07:53.049Z,19.00
2018-04-11T16:10:20.478Z,18.90
2018-04-11T16:12:47.909Z,19.00
2018-04-11T16:15:16.118Z,18.90
2018-04-11T16:17:43.678Z,18.80
2018-04-11T16:20:11.146Z,18.90
2018-04-11T16:22:38.576Z,18.90
2018-04-11T16:25:06.014Z,18.90
2018-04-11T16:27:34.230Z,18.70
2018-04-11T16:30:01.661Z,18.70
2018-04-11T16:32:29.109Z,18.60
2018-04-11T16:34:57.300Z,18.60
2018-04-11T16:37:24.891Z,18.60
2018-04-11T16:39:52.316Z,18.60
2018-04-11T16:42:19.761Z,18.50
2018-04-11T16:44:48.178Z,18.40
2018-04-11T16:47:15.606Z,18.40
2018-04-11T16:49:43.042Z,18.40
2018-04-11T16:52:11.246Z,18.40
2018-04-11T16:54:38.676Z,18.30
2018-04-11T16:57:06.889Z,18.30
2018-04-11T16:59:34.324Z,18.30
2018-04-11T17:02:01.755Z,18.30
2018-04-11T17:04:29.972Z,18.20
2018-04-11T17:06:57.421Z,18.10
2018-04-11T17:09:24.844Z,18.10
2018-04-11T17:11:53.072Z,18.10
2018-04-11T17:14:20.511Z,18.10
2018-04-11T17:16:47.948Z,18.10
2018-04-11T17:19:15.385Z,18.10
2018-04-11T17:21:55.646Z,18.00
2018-04-11T17:24:35.769Z,18.00
2018-04-11T17:27:15.186Z,17.90
2018-04-11T17:29:54.405Z,17.90
2018-04-11T17:32:21.856Z,17.90
2018-04-11T17:34:49.293Z,17.80
2018-04-11T17:37:16.740Z,17.70
2018-04-11T17:39:44.961Z,17.70
2018-04-11T17:42:12.400Z,17.60
2018-04-11T17:44:39.853Z,17.60
2018-04-11T17:47:07.313Z,17.60
2018-04-11T17:49:35.080Z,17.60
2018-04-11T17:52:02.497Z,17.50
2018-04-11T17:54:30.696Z,17.40
2018-04-11T17:56:59.124Z,17.40
2018-04-11T17:59:28.065Z,17.30
2018-04-11T18:01:55.488Z,17.30
2018-04-11T18:04:23.706Z,17.20
2018-04-11T18:06:51.137Z,17.20
2018-04-11T18:09:19.676Z,17.20
2018-04-11T18:11:47.104Z,17.20
2018-04-11T18:14:14.700Z,17.10
2018-04-11T18:16:42.142Z,17.10
2018-04-11T18:19:09.581Z,17.10
2018-04-11T18:21:37.038Z,17.10
2018-04-11T18:24:04.459Z,17.00
2018-04-11T18:26:32.676Z,17.00
2018-04-11T18:29:00.112Z,16.90
2018-04-11T18:31:27.536Z,16.90
2018-04-11T18:33:55.801Z,16.80
2018-04-11T18:36:23.229Z,16.80
2018-04-11T18:38:50.665Z,16.80
2018-04-11T18:41:18.355Z,16.80
2018-04-11T18:43:45.814Z,16.80
2018-04-11T18:46:13.229Z,16.80
2018-04-11T18:48:40.700Z,16.70
2018-04-11T18:51:08.129Z,16.60
2018-04-11T18:53:36.350Z,16.50
2018-04-11T18:56:03.796Z,16.50
2018-04-11T18:58:31.233Z,16.50
2018-04-11T19:00:58.681Z,16.50
2018-04-11T19:03:26.116Z,16.50
2018-04-11T19:05:54.437Z,16.40
2018-04-11T19:08:21.878Z,16.30
2018-04-11T19:10:49.319Z,16.30
2018-04-11T19:13:16.818Z,16.30
2018-04-11T19:15:45.489Z,16.40
2018-04-11T19:18:13.471Z,16.30
2018-04-11T19:20:41.529Z,16.30
2018-04-11T19:23:09.113Z,16.30
2018-04-11T19:25:38.109Z,16.30
2018-04-11T19:28:06.226Z,16.20
2018-04-11T19:30:34.691Z,16.30
2018-04-11T19:33:03.196Z,16.20
2018-04-11T19:35:30.744Z,16.20
2018-04-11T19:38:00.394Z,16.20
2018-04-11T19:40:28.414Z,16.10
2018-04-11T19:42:56.657Z,16.20
2018-04-11T19:45:24.214Z,16.10
2018-04-11T19:47:51.678Z,16.20
2018-04-11T19:50:19.125Z,16.20
2018-04-11T19:52:46.878Z,16.10
2018-04-11T19:55:14.475Z,16.10
2018-04-11T19:57:42.699Z,16.10
2018-04-11T20:00:10.131Z,16.10
2018-04-11T20:02:38.556Z,16.10
2018-04-11T20:05:06.713Z,16.10
2018-04-11T20:07:34.148Z,16.00
2018-04-11T20:10:01.615Z,16.00
2018-04-11T20:12:29.113Z,16.00
2018-04-11T20:14:56.561Z,16.00
2018-04-11T20:17:24.002Z,16.00
2018-04-11T20:19:51.693Z,15.90
2018-04-11T20:22:19.149Z,15.90
2018-04-11T20:24:46.636Z,15.90
2018-04-11T20:27:14.856Z,15.90
2018-04-11T20:29:42.521Z,15.80
2018-04-11T20:32:09.952Z,15.90
2018-04-11T20:34:37.389Z,15.90
2018-04-11T20:37:04.997Z,15.90
2018-04-11T20:39:32.433Z,15.90
2018-04-11T20:41:59.869Z,15.80
2018-04-11T20:44:27.325Z,15.80
2018-04-11T20:46:54.752Z,15.80
2018-04-11T20:49:22.201Z,15.80
2018-04-11T20:51:49.640Z,15.70
2018-04-11T20:54:17.098Z,15.80
2018-04-11T20:56:44.524Z,15.80
2018-04-11T20:59:11.953Z,15.70
2018-04-11T21:01:40.377Z,15.70
2018-04-11T21:04:07.825Z,15.60
2018-04-11T21:06:35.256Z,15.70
2018-04-11T21:09:02.692Z,15.80
2018-04-11T21:11:30.917Z,15.70
2018-04-11T21:13:58.360Z,15.70
2018-04-11T21:16:25.788Z,15.80
2018-04-11T21:18:53.992Z,15.80
2018-04-11T21:21:21.453Z,15.70
2018-04-11T21:23:48.887Z,15.70
2018-04-11T21:26:16.312Z,15.70
2018-04-11T21:28:43.762Z,15.70
2018-04-11T21:31:11.212Z,15.70
2018-04-11T21:33:39.413Z,15.60
2018-04-11T21:36:07.621Z,15.60
2018-04-11T21:38:35.217Z,15.60
2018-04-11T21:41:02.640Z,15.60
2018-04-11T21:43:30.085Z,15.60
2018-04-11T21:45:57.517Z,15.60
2018-04-11T21:48:25.955Z,15.60
2018-04-11T21:50:53.386Z,15.50
2018-04-11T21:53:20.860Z,15.60
2018-04-11T21:55:48.309Z,15.60
2018-04-11T21:58:15.758Z,15.60
2018-04-11T22:00:43.197Z,15.60
2018-04-11T22:03:10.688Z,15.60
2018-04-11T22:05:38.136Z,15.50
2018-04-11T22:08:05.586Z,15.50
2018-04-11T22:10:33.175Z,15.50
2018-04-11T22:13:00.616Z,15.50
2018-04-11T22:15:28.047Z,15.50
2018-04-11T22:17:55.496Z,15.50
2018-04-11T22:20:22.940Z,15.50
2018-04-11T22:22:51.144Z,15.50
2018-04-11T22:25:18.580Z,15.50
2018-04-11T22:27:46.029Z,15.50
2018-04-11T22:30:14.219Z,15.50
2018-04-11T22:32:41.649Z,15.50
2018-04-11T22:35:09.867Z,15.50
2018-04-11T22:37:37.317Z,15.40
2018-04-11T22:40:04.736Z,15.40
2018-04-11T22:42:32.952Z,15.40
2018-04-11T22:45:00.628Z,15.40
2018-04-11T22:47:28.071Z,15.40
2018-04-11T22:49:55.536Z,15.50
2018-04-11T22:52:23.200Z,15.40
2018-04-11T22:54:50.638Z,15.40
2018-04-11T22:57:18.065Z,15.50
2018-04-11T22:59:46.280Z,15.40
2018-04-11T23:02:13.704Z,15.40
2018-04-11T23:04:41.197Z,15.30
2018-04-11T23:07:08.642Z,15.40
2018-04-11T23:09:36.068Z,15.40
2018-04-11T23:12:04.262Z,15.50
2018-04-11T23:14:31.700Z,15.40
2018-04-11T23:16:59.907Z,15.40
2018-04-11T23:19:27.347Z,15.40
2018-04-11T23:21:54.764Z,15.40
2018-04-11T23:24:22.214Z,15.30
2018-04-11T23:26:49.647Z,15.40
2018-04-11T23:29:17.095Z,15.30
2018-04-11T23:31:44.501Z,15.30
2018-04-11T23:34:12.715Z,15.10
2018-04-11T23:36:40.144Z,15.10
2018-04-11T23:39:08.592Z,15.10
2018-04-11T23:41:36.028Z,15.00
2018-04-11T23:44:03.471Z,15.00
2018-04-11T23:46:30.915Z,15.00
2018-04-11T23:48:58.337Z,14.90
2018-04-11T23:51:26.552Z,15.00
2018-04-11T23:53:53.984Z,14.90
2018-04-11T23:56:21.425Z,14.90
2018-04-11T23:58:48.852Z,15.00
